Cleone, Illinois
Current Conditions -  °F | °C
As of 9:55 PM on Saturday 20 Dec 2014 (Local Time) from KRSV Reporting Station
Haze Haze  
Wind Chill: 25°   Ceiling: Unl
Heat Index: 25°   Visibility: 5mi
Dew Point: 24°   Wind: 0mph
Humidity: 99%   Direction: NA
Pressure: 30.32"   Gusts: NA
Location:  39.2747°N, 87.8463°W
Report Text: KRSV 210355Z AUTO 00000KT 5SM BR CLR M04/M04 A3032 RMK AO2 T10401042
Loading
Personal Weather Stations






























Interactive Weather Map New forecast layout! Learn more

10-Day Weather Forecast

Advertisements
Track Severe Weather on mobile